createdAt,value
2022-08-17T00:00:43.402Z,21.08
2022-08-17T00:03:17.185Z,21.08
2022-08-17T00:05:50.970Z,21.09
2022-08-17T00:08:24.130Z,21.09
2022-08-17T00:10:54.390Z,21.12
2022-08-17T00:13:26.545Z,21.13
2022-08-17T00:16:02.039Z,21.15
2022-08-17T00:19:06.483Z,21.16
2022-08-17T00:21:23.760Z,21.18
2022-08-17T00:23:52.320Z,21.21
2022-08-17T00:26:43.503Z,21.21
2022-08-17T00:29:09.855Z,21.22
2022-08-17T00:31:49.253Z,21.18
2022-08-17T00:34:17.873Z,21.18
2022-08-17T00:36:46.356Z,21.21
2022-08-17T00:39:14.546Z,21.21
2022-08-17T00:41:42.940Z,21.22
2022-08-17T00:44:12.574Z,21.20
2022-08-17T00:46:44.958Z,21.13
2022-08-17T00:49:14.974Z,21.06
2022-08-17T00:51:48.790Z,21.01
2022-08-17T00:54:31.726Z,20.98
2022-08-17T00:57:10.146Z,20.92
2022-08-17T00:59:44.570Z,20.88
2022-08-17T01:02:15.848Z,20.86
2022-08-17T01:04:47.246Z,20.85
2022-08-17T01:07:17.325Z,20.82
2022-08-17T01:09:45.351Z,20.79
2022-08-17T01:12:13.720Z,20.80
2022-08-17T01:14:42.406Z,20.78
2022-08-17T01:17:10.886Z,20.80
2022-08-17T01:19:42.425Z,20.80
2022-08-17T01:22:15.059Z,20.78
2022-08-17T01:24:48.108Z,20.77
2022-08-17T01:27:18.615Z,20.79
2022-08-17T01:29:54.179Z,20.82
2022-08-17T01:32:22.142Z,20.82
2022-08-17T01:34:50.976Z,20.82
2022-08-17T01:37:21.816Z,20.79
2022-08-17T01:39:55.393Z,20.73
2022-08-17T01:42:49.331Z,20.70
2022-08-17T01:45:30.638Z,20.67
2022-08-17T01:47:58.720Z,20.62
2022-08-17T01:50:32.442Z,20.55
2022-08-17T01:53:04.630Z,20.49
2022-08-17T01:55:41.253Z,20.46
2022-08-17T01:58:10.438Z,20.45
2022-08-17T02:00:58.189Z,20.42
2022-08-17T02:03:34.705Z,20.37
2022-08-17T02:06:05.178Z,20.32
2022-08-17T02:08:38.969Z,20.27
2022-08-17T02:11:14.836Z,20.27
2022-08-17T02:13:45.058Z,20.26
2022-08-17T02:16:13.885Z,20.21
2022-08-17T02:18:42.528Z,20.19
2022-08-17T02:21:11.216Z,20.20
2022-08-17T02:23:47.992Z,20.20
2022-08-17T02:26:26.102Z,20.20
2022-08-17T02:28:55.155Z,20.25
2022-08-17T02:31:23.233Z,20.31
2022-08-17T02:34:00.481Z,20.34
2022-08-17T02:36:35.097Z,20.38
2022-08-17T02:39:06.005Z,20.40
2022-08-17T02:41:34.549Z,20.39
2022-08-17T02:44:02.933Z,20.37
2022-08-17T02:46:31.715Z,20.35
2022-08-17T02:49:00.507Z,20.33
2022-08-17T02:51:28.691Z,20.31
2022-08-17T02:54:35.840Z,20.29
2022-08-17T02:56:45.196Z,20.26
2022-08-17T02:59:13.503Z,20.23
2022-08-17T03:01:41.808Z,20.22
2022-08-17T03:04:09.941Z,20.21
2022-08-17T03:06:38.095Z,20.22
2022-08-17T03:09:06.369Z,20.23
2022-08-17T03:11:35.258Z,20.24
2022-08-17T03:14:03.231Z,20.25
2022-08-17T03:16:31.149Z,20.24
2022-08-17T03:18:59.482Z,20.25
2022-08-17T03:21:27.546Z,20.24
2022-08-17T03:23:55.622Z,20.23
2022-08-17T03:26:23.603Z,20.22
2022-08-17T03:28:57.813Z,20.19
2022-08-17T03:31:25.870Z,20.20
2022-08-17T03:33:54.054Z,20.21
2022-08-17T03:36:22.379Z,20.22
2022-08-17T03:38:50.401Z,20.21
2022-08-17T03:41:20.316Z,20.22
2022-08-17T03:43:48.271Z,20.18
2022-08-17T03:46:35.682Z,20.21
2022-08-17T03:49:27.172Z,20.22
2022-08-17T03:52:15.255Z,20.22
2022-08-17T03:55:04.023Z,20.26
2022-08-17T03:57:32.579Z,20.33
2022-08-17T04:00:00.775Z,20.39
2022-08-17T04:02:32.537Z,20.45
2022-08-17T04:05:01.315Z,20.52
2022-08-17T04:07:31.646Z,20.54
2022-08-17T04:10:00.390Z,20.54
2022-08-17T04:12:42.853Z,20.55
2022-08-17T04:18:07.351Z,20.57
2022-08-17T04:20:35.495Z,20.60
2022-08-17T04:23:11.624Z,20.64
2022-08-17T04:25:43.148Z,20.66
2022-08-17T04:28:15.556Z,20.74
2022-08-17T04:35:47.169Z,20.87
2022-08-17T04:38:27.355Z,21.00
2022-08-17T04:41:15.298Z,21.05
2022-08-17T04:43:45.564Z,21.13
2022-08-17T04:46:19.629Z,21.20
2022-08-17T04:48:50.990Z,21.25
2022-08-17T04:51:40.356Z,21.29
2022-08-17T04:54:21.158Z,21.36
2022-08-17T04:56:49.326Z,21.36
2022-08-17T04:59:21.430Z,21.40
2022-08-17T05:01:51.560Z,21.49
2022-08-17T05:04:34.474Z,21.58
2022-08-17T05:07:04.814Z,21.71
2022-08-17T05:09:32.955Z,21.83
2022-08-17T05:12:02.561Z,21.94
2022-08-17T05:14:32.930Z,22.08
2022-08-17T05:17:07.198Z,22.18
2022-08-17T05:19:37.595Z,22.15
2022-08-17T05:22:06.375Z,22.15
2022-08-17T05:24:42.756Z,22.15
2022-08-17T05:27:23.510Z,22.06
2022-08-17T05:29:52.371Z,21.99
2022-08-17T05:32:39.248Z,21.96
2022-08-17T05:35:11.137Z,22.02
2022-08-17T05:37:39.570Z,22.18
2022-08-17T05:40:08.310Z,22.75
2022-08-17T05:42:36.545Z,23.07
2022-08-17T05:45:05.751Z,23.13
2022-08-17T05:47:33.916Z,23.16
2022-08-17T05:50:02.706Z,23.67
2022-08-17T05:53:11.576Z,24.63
2022-08-17T05:55:59.331Z,25.32
2022-08-17T05:58:55.575Z,25.37
2022-08-17T06:01:35.357Z,26.06
2022-08-17T06:04:19.939Z,26.73
2022-08-17T06:07:05.459Z,27.14
2022-08-17T06:09:36.474Z,27.55
2022-08-17T06:12:59.747Z,27.94
2022-08-17T06:15:36.576Z,28.27
2022-08-17T06:18:08.425Z,28.14
2022-08-17T06:20:47.652Z,28.38
2022-08-17T06:23:41.266Z,28.54
2022-08-17T06:26:16.589Z,28.63
2022-08-17T06:28:51.888Z,28.70
2022-08-17T06:31:51.752Z,28.79
2022-08-17T06:34:21.091Z,28.72
2022-08-17T06:36:54.158Z,28.72
2022-08-17T06:39:46.134Z,28.67
2022-08-17T06:43:02.569Z,28.33
2022-08-17T06:45:34.616Z,27.45
2022-08-17T06:48:13.051Z,26.80
2022-08-17T06:50:55.416Z,26.48
2022-08-17T06:53:41.252Z,26.17
2022-08-17T06:56:11.741Z,25.80
2022-08-17T06:58:43.566Z,25.77
2022-08-17T07:01:19.492Z,25.91
2022-08-17T07:04:06.734Z,26.09
2022-08-17T07:06:50.899Z,26.32
2022-08-17T07:09:38.237Z,26.41
2022-08-17T07:12:16.128Z,26.39
2022-08-17T07:14:54.612Z,26.69
2022-08-17T07:17:46.636Z,27.06
2022-08-17T07:20:18.129Z,27.39
2022-08-17T07:23:04.500Z,27.43
2022-08-17T07:25:33.316Z,27.54
2022-08-17T07:28:07.065Z,28.04
2022-08-17T07:30:49.493Z,28.59
2022-08-17T07:33:33.301Z,29.42
2022-08-17T07:36:01.966Z,30.41
2022-08-17T07:38:35.612Z,31.04
2022-08-17T07:41:07.572Z,31.29
2022-08-17T07:43:41.581Z,31.30
2022-08-17T07:46:53.871Z,31.38
2022-08-17T07:49:32.536Z,31.44
2022-08-17T07:52:48.128Z,31.29
2022-08-17T07:54:58.845Z,31.49
2022-08-17T07:57:35.819Z,31.92
2022-08-17T08:00:16.868Z,32.14
2022-08-17T08:02:58.830Z,32.20
2022-08-17T08:05:49.309Z,32.46
2022-08-17T08:08:26.981Z,32.94
2022-08-17T08:11:02.227Z,33.04
2022-08-17T08:13:32.507Z,33.25
2022-08-17T08:16:21.186Z,33.65
2022-08-17T08:18:55.302Z,33.96
2022-08-17T08:21:31.175Z,34.33
2022-08-17T08:24:19.746Z,34.06
2022-08-17T08:27:10.703Z,34.11
2022-08-17T08:30:06.786Z,34.36
2022-08-17T08:32:57.902Z,34.84
2022-08-17T08:35:31.642Z,35.34
2022-08-17T08:38:20.346Z,35.77
2022-08-17T08:41:19.458Z,35.79
2022-08-17T08:44:01.000Z,35.59
2022-08-17T08:46:50.817Z,34.55
2022-08-17T08:49:45.072Z,34.58
2022-08-17T08:52:34.329Z,33.91
2022-08-17T08:55:34.716Z,33.65
2022-08-17T08:58:08.630Z,34.51
2022-08-17T09:00:58.747Z,35.15
2022-08-17T09:03:51.664Z,35.38
2022-08-17T09:06:58.170Z,34.49
2022-08-17T09:09:40.841Z,34.18
2022-08-17T09:12:25.691Z,35.21
2022-08-17T09:15:17.908Z,36.55
2022-08-17T09:19:01.131Z,37.80
2022-08-17T09:20:55.966Z,38.01
2022-08-17T09:23:49.820Z,37.81
2022-08-17T09:26:25.596Z,38.36
2022-08-17T09:29:01.831Z,38.57
2022-08-17T09:31:47.080Z,39.23
2022-08-17T09:34:29.555Z,39.85
2022-08-17T09:37:20.799Z,40.15
2022-08-17T09:39:48.745Z,39.29
2022-08-17T09:42:50.042Z,37.93
2022-08-17T09:45:41.083Z,37.24
2022-08-17T09:48:12.948Z,36.53
2022-08-17T09:51:04.882Z,36.45
2022-08-17T09:53:38.788Z,37.12
2022-08-17T09:56:28.527Z,38.32
2022-08-17T09:59:08.786Z,39.16
2022-08-17T10:02:05.011Z,39.16
2022-08-17T10:04:51.826Z,40.08
2022-08-17T10:07:47.758Z,39.47
2022-08-17T10:10:30.067Z,37.75
2022-08-17T10:13:26.149Z,36.50
2022-08-17T10:16:02.129Z,35.91
2022-08-17T10:18:44.915Z,35.89
2022-08-17T10:21:35.685Z,35.60
2022-08-17T10:24:28.494Z,34.92
2022-08-17T10:27:00.636Z,34.49
2022-08-17T10:29:49.169Z,34.31
2022-08-17T10:32:32.519Z,34.20
2022-08-17T10:35:07.270Z,34.66
2022-08-17T10:37:54.207Z,35.41
2022-08-17T10:40:48.435Z,35.07
2022-08-17T10:43:57.829Z,35.33
2022-08-17T10:46:52.391Z,37.16
2022-08-17T10:49:23.149Z,38.69
2022-08-17T10:52:12.711Z,39.60
2022-08-17T10:54:47.499Z,40.50
2022-08-17T10:57:31.945Z,40.17
2022-08-17T11:00:02.362Z,40.23
2022-08-17T11:02:51.358Z,39.96
2022-08-17T11:05:29.149Z,39.63
2022-08-17T11:08:46.374Z,39.79
2022-08-17T11:11:40.027Z,39.87
2022-08-17T11:14:17.511Z,41.29
2022-08-17T11:17:11.651Z,41.59
2022-08-17T11:19:39.711Z,40.76
2022-08-17T11:22:32.762Z,40.23
2022-08-17T11:25:31.158Z,41.08
2022-08-17T11:28:26.076Z,41.99
2022-08-17T11:31:10.226Z,43.42
2022-08-17T11:33:45.215Z,44.33
2022-08-17T11:36:29.662Z,44.78
2022-08-17T11:39:15.306Z,45.25
2022-08-17T11:42:20.909Z,45.49
2022-08-17T11:45:08.748Z,45.95
2022-08-17T11:48:27.735Z,46.19
2022-08-17T11:51:46.156Z,45.05
2022-08-17T11:54:32.112Z,44.47
2022-08-17T11:57:25.715Z,42.78
2022-08-17T12:00:00.664Z,40.93
2022-08-17T12:02:31.514Z,39.49
2022-08-17T12:05:14.867Z,38.55
2022-08-17T12:07:52.722Z,37.86
2022-08-17T12:10:32.018Z,37.22
2022-08-17T12:13:07.075Z,36.86
2022-08-17T12:15:40.979Z,36.80
2022-08-17T12:18:18.342Z,36.77
2022-08-17T12:20:56.561Z,36.41
2022-08-17T12:23:29.499Z,36.68
2022-08-17T12:25:59.884Z,37.22
2022-08-17T12:28:34.335Z,37.40
2022-08-17T12:31:31.798Z,38.18
2022-08-17T12:34:00.626Z,38.32
2022-08-17T12:36:29.328Z,38.38
2022-08-17T12:39:14.181Z,37.93
2022-08-17T12:41:52.721Z,36.98
2022-08-17T12:44:22.325Z,36.41
2022-08-17T12:47:21.886Z,35.97
2022-08-17T12:49:52.940Z,35.79
2022-08-17T12:52:33.018Z,37.18
2022-08-17T12:55:05.768Z,39.01
2022-08-17T12:57:41.523Z,40.39
2022-08-17T13:00:17.860Z,41.42
2022-08-17T13:02:58.346Z,42.10
2022-08-17T13:05:29.267Z,42.69
2022-08-17T13:07:59.678Z,43.22
2022-08-17T13:10:33.077Z,43.91
2022-08-17T13:13:06.125Z,44.38
2022-08-17T13:15:44.902Z,44.85
2022-08-17T13:18:48.942Z,44.85
2022-08-17T13:21:30.678Z,44.65
2022-08-17T13:24:10.776Z,44.75
2022-08-17T13:26:44.291Z,45.26
2022-08-17T13:29:37.288Z,45.18
2022-08-17T13:32:13.042Z,44.35
2022-08-17T13:35:12.622Z,44.04
2022-08-17T13:37:35.821Z,43.78
2022-08-17T13:40:09.757Z,41.85
2022-08-17T13:42:53.004Z,40.11
2022-08-17T13:45:40.275Z,39.96
2022-08-17T13:48:13.840Z,38.48
2022-08-17T13:50:43.767Z,36.87
2022-08-17T13:53:50.742Z,36.06
2022-08-17T13:56:45.176Z,35.51
2022-08-17T13:59:36.022Z,35.43
2022-08-17T14:02:18.768Z,36.90
2022-08-17T14:04:48.180Z,37.04
2022-08-17T14:07:18.460Z,36.34
2022-08-17T14:09:54.703Z,36.55
2022-08-17T14:12:27.488Z,37.72
2022-08-17T14:14:56.691Z,39.05
2022-08-17T14:17:29.176Z,40.24
2022-08-17T14:19:58.628Z,40.68
2022-08-17T14:22:35.145Z,39.80
2022-08-17T14:25:04.790Z,38.49
2022-08-17T14:27:52.373Z,38.69
2022-08-17T14:30:25.138Z,39.81
2022-08-17T14:32:54.331Z,40.95
2022-08-17T14:35:24.048Z,42.15
2022-08-17T14:37:53.008Z,43.25
2022-08-17T14:40:25.086Z,44.20
2022-08-17T14:42:55.441Z,44.89
2022-08-17T14:45:30.154Z,45.19
2022-08-17T14:48:07.941Z,45.47
2022-08-17T14:50:38.917Z,45.74
2022-08-17T14:53:10.123Z,46.37
2022-08-17T14:55:40.741Z,47.33
2022-08-17T14:58:09.501Z,47.85
2022-08-17T15:00:39.696Z,48.18
2022-08-17T15:03:07.788Z,47.95
2022-08-17T15:05:38.042Z,47.20
2022-08-17T15:08:07.327Z,45.94
2022-08-17T15:10:36.484Z,45.10
2022-08-17T15:13:23.521Z,45.05
2022-08-17T15:15:52.133Z,45.39
2022-08-17T15:18:20.457Z,46.00
2022-08-17T15:20:50.304Z,46.36
2022-08-17T15:23:22.035Z,46.42
2022-08-17T15:25:52.712Z,46.48
2022-08-17T15:28:25.373Z,45.41
2022-08-17T15:30:54.177Z,44.96
2022-08-17T15:33:29.663Z,45.33
2022-08-17T15:36:03.336Z,44.04
2022-08-17T15:38:34.360Z,41.25
2022-08-17T15:41:03.006Z,39.42
2022-08-17T15:43:33.005Z,38.05
2022-08-17T15:46:12.748Z,36.86
2022-08-17T15:48:42.701Z,35.59
2022-08-17T15:51:21.345Z,34.83
2022-08-17T15:53:58.771Z,36.05
2022-08-17T15:56:29.400Z,37.30
2022-08-17T15:58:58.695Z,38.26
2022-08-17T16:02:15.425Z,38.49
2022-08-17T16:04:30.528Z,39.30
2022-08-17T16:07:00.380Z,38.43
2022-08-17T16:09:29.076Z,36.32
2022-08-17T16:11:57.599Z,35.03
2022-08-17T16:14:32.516Z,35.27
2022-08-17T16:17:05.676Z,35.71
2022-08-17T16:19:54.264Z,36.06
2022-08-17T16:22:33.361Z,36.65
2022-08-17T16:25:06.617Z,37.39
2022-08-17T16:27:35.099Z,37.36
2022-08-17T16:30:06.300Z,37.06
2022-08-17T16:32:34.663Z,36.44
2022-08-17T16:35:06.169Z,35.40
2022-08-17T16:37:35.064Z,34.24
2022-08-17T16:40:07.998Z,33.34
2022-08-17T16:42:38.676Z,32.47
2022-08-17T16:45:17.336Z,31.91
2022-08-17T16:47:46.477Z,31.47
2022-08-17T16:50:18.045Z,31.16
2022-08-17T16:52:50.393Z,30.96
2022-08-17T16:55:21.493Z,30.70
2022-08-17T16:57:50.337Z,30.52
2022-08-17T17:00:19.587Z,30.37
2022-08-17T17:02:49.882Z,30.03
2022-08-17T17:05:43.676Z,29.76
2022-08-17T17:08:25.756Z,29.43
2022-08-17T17:10:56.725Z,29.35
2022-08-17T17:13:44.309Z,29.11
2022-08-17T17:16:12.380Z,28.91
2022-08-17T17:19:03.406Z,28.88
2022-08-17T17:21:42.804Z,28.83
2022-08-17T17:24:17.086Z,28.79
2022-08-17T17:27:11.890Z,28.72
2022-08-17T17:29:56.096Z,28.62
2022-08-17T17:32:43.051Z,28.49
2022-08-17T17:35:47.922Z,28.32
2022-08-17T17:38:22.271Z,28.15
2022-08-17T17:40:55.134Z,28.05
2022-08-17T17:43:39.751Z,27.95
2022-08-17T17:46:27.700Z,27.82
2022-08-17T17:48:58.181Z,27.73
2022-08-17T17:52:10.213Z,27.65
2022-08-17T17:55:03.619Z,27.55
2022-08-17T17:57:47.662Z,27.40
2022-08-17T18:00:23.669Z,27.34
2022-08-17T18:03:01.009Z,27.21
2022-08-17T18:06:01.164Z,27.10
2022-08-17T18:08:53.069Z,27.01
2022-08-17T18:11:25.113Z,26.92
2022-08-17T18:14:20.796Z,26.89
2022-08-17T18:16:55.503Z,26.83
2022-08-17T18:19:26.136Z,26.78
2022-08-17T18:22:21.479Z,26.68
2022-08-17T18:24:56.247Z,26.62
2022-08-17T18:27:24.405Z,26.51
2022-08-17T18:29:58.116Z,26.44
2022-08-17T18:32:37.803Z,26.40
2022-08-17T18:35:11.866Z,26.33
2022-08-17T18:37:54.123Z,26.17
2022-08-17T18:40:30.851Z,26.06
2022-08-17T18:43:08.849Z,25.96
2022-08-17T18:45:48.492Z,25.83
2022-08-17T18:48:38.517Z,25.75
2022-08-17T18:51:48.947Z,25.61
2022-08-17T18:54:25.817Z,25.48
2022-08-17T18:56:57.363Z,25.36
2022-08-17T18:59:50.323Z,25.27
2022-08-17T19:02:38.671Z,25.16
2022-08-17T19:05:30.093Z,25.10
2022-08-17T19:08:29.785Z,25.04
2022-08-17T19:11:09.658Z,24.94
2022-08-17T19:13:44.272Z,24.83
2022-08-17T19:16:46.547Z,24.73
2022-08-17T19:19:45.419Z,24.61
2022-08-17T19:22:40.738Z,24.56
2022-08-17T19:25:18.158Z,24.52
2022-08-17T19:27:58.146Z,24.46
2022-08-17T19:30:26.992Z,24.37
2022-08-17T19:33:01.802Z,24.31
2022-08-17T19:36:07.758Z,24.27
2022-08-17T19:39:06.175Z,24.19
2022-08-17T19:42:05.132Z,24.16
2022-08-17T19:45:12.628Z,24.08
2022-08-17T19:47:55.206Z,24.02
2022-08-17T19:50:43.178Z,23.93
2022-08-17T19:54:07.131Z,23.91
2022-08-17T19:56:44.225Z,23.87
2022-08-17T19:59:23.507Z,23.88
2022-08-17T20:01:54.789Z,23.89
2022-08-17T20:04:32.389Z,23.91
2022-08-17T20:07:06.908Z,23.88
2022-08-17T20:09:39.338Z,23.86
2022-08-17T20:12:26.916Z,23.79
2022-08-17T20:15:04.008Z,23.78
2022-08-17T20:17:40.766Z,23.73
2022-08-17T20:20:43.722Z,23.62
2022-08-17T20:23:23.725Z,23.51
2022-08-17T20:26:05.922Z,23.48
2022-08-17T20:28:39.326Z,23.43
2022-08-17T20:31:42.038Z,23.39
2022-08-17T20:34:36.869Z,23.34
2022-08-17T20:37:29.135Z,23.29
2022-08-17T20:39:57.462Z,23.28
2022-08-17T20:42:26.299Z,23.28
2022-08-17T20:45:21.757Z,23.29
2022-08-17T20:50:52.946Z,23.24
2022-08-17T20:53:56.172Z,23.14
2022-08-17T20:56:48.396Z,23.04
2022-08-17T20:59:30.674Z,22.97
2022-08-17T21:02:17.698Z,22.88
2022-08-17T21:04:50.195Z,22.77
2022-08-17T21:07:29.585Z,22.70
2022-08-17T21:10:16.145Z,22.72
2022-08-17T21:12:50.056Z,22.71
2022-08-17T21:15:43.744Z,22.77
2022-08-17T21:18:39.029Z,22.90
2022-08-17T21:21:33.001Z,22.99
2022-08-17T21:24:26.070Z,22.97
2022-08-17T21:26:55.635Z,22.91
2022-08-17T21:29:31.104Z,22.85
2022-08-17T21:32:05.401Z,22.84
2022-08-17T21:34:40.561Z,22.83
2022-08-17T21:37:23.707Z,22.82
2022-08-17T21:39:56.521Z,22.86
2022-08-17T21:42:32.190Z,22.96
2022-08-17T21:45:10.946Z,23.02
2022-08-17T21:47:45.375Z,22.97
2022-08-17T21:50:19.535Z,22.90
2022-08-17T21:52:50.150Z,22.87
2022-08-17T21:55:24.725Z,22.89
2022-08-17T21:58:12.184Z,22.86
2022-08-17T22:00:44.845Z,22.86
2022-08-17T22:03:26.476Z,22.88
2022-08-17T22:05:54.589Z,22.85
2022-08-17T22:08:25.997Z,22.81
2022-08-17T22:11:01.705Z,22.76
2022-08-17T22:13:30.139Z,22.72
2022-08-17T22:16:15.171Z,22.66
2022-08-17T22:18:53.872Z,22.58
2022-08-17T22:21:22.612Z,22.47
2022-08-17T22:24:06.195Z,22.39
2022-08-17T22:27:02.733Z,22.35
2022-08-17T22:30:00.493Z,22.32
2022-08-17T22:32:37.778Z,22.23
2022-08-17T22:35:26.941Z,22.11
2022-08-17T22:37:57.459Z,22.08
2022-08-17T22:40:30.768Z,22.06
2022-08-17T22:43:03.686Z,22.04
2022-08-17T22:45:33.766Z,21.98
2022-08-17T22:48:02.383Z,21.93
2022-08-17T22:50:33.388Z,21.87
2022-08-17T22:53:30.849Z,21.76
2022-08-17T22:56:17.988Z,21.67
2022-08-17T22:59:12.465Z,21.67
2022-08-17T23:01:42.607Z,21.67
2022-08-17T23:04:29.795Z,21.66
2022-08-17T23:06:58.081Z,21.63
2022-08-17T23:09:26.245Z,21.59
2022-08-17T23:11:59.023Z,21.53
2022-08-17T23:14:32.485Z,21.48
2022-08-17T23:17:02.007Z,21.42
2022-08-17T23:19:33.061Z,21.37
2022-08-17T23:22:04.586Z,21.34
2022-08-17T23:24:39.607Z,21.29
2022-08-17T23:27:08.443Z,21.24
2022-08-17T23:29:41.840Z,21.22
2022-08-17T23:32:14.947Z,21.22
2022-08-17T23:34:45.119Z,21.14
2022-08-17T23:37:13.265Z,21.05
2022-08-17T23:39:45.256Z,21.00
2022-08-17T23:42:24.827Z,20.96
2022-08-17T23:44:53.192Z,20.92
2022-08-17T23:47:21.647Z,20.90
2022-08-17T23:49:49.753Z,20.84
2022-08-17T23:52:23.042Z,20.78
2022-08-17T23:54:51.210Z,20.75
2022-08-17T23:57:33.857Z,20.73
